WetterOnline ( http://www.wetteronline.at )

Wetter aktuell Pforzheim

Aktuelles Wetter: Mühlacker (245m)

6-stündlich | Neueste Meldungen
Ortszeit Temperatur Wetter
Mo, 24.09. 14:00 13.5° C leicht bewölkt
Mo, 24.09. 8:00 7.5° C leicht bewölkt
Mo, 24.09. 2:00 9.5° C bewölkt
So, 23.09. 20:00 15.3° C leichter Regen
So, 23.09. 14:00 21.3° C bedeckt
So, 23.09. 8:00 12.3° C Regen
So, 23.09. 2:00 11.7° C Sprühregen
Sa, 22.09. 20:00 15.8° C bedeckt
Ortszeit Temperatur Wetter
Mo, 24.09. 18:00 14.6° C wolkenlos
Mo, 24.09. 17:50 14.6° C wolkenlos
Mo, 24.09. 17:40 14.5° C wolkenlos
Mo, 24.09. 17:30 14.5° C fast wolkenlos
Mo, 24.09. 17:20 14.5° C fast wolkenlos
Mo, 24.09. 17:10 14.7° C leicht bewölkt
Mo, 24.09. 17:00 14.8° C fast wolkenlos
Mo, 24.09. 16:30 14.3° C wolkenlos
Mo, 24.09. 16:00 14.7° C leicht bewölkt
Mo, 24.09. 15:30 14.7° C leicht bewölkt
Mo, 24.09. 15:00 13.9° C leicht bewölkt
Ortszeit Relative Feuchte Sichtweite
Mo, 24.09. 14:00 53% 40 km
Mo, 24.09. 8:00 90% 40 km
Mo, 24.09. 2:00 77% 70 km
So, 23.09. 20:00 95% 9 km
So, 23.09. 14:00 71% 70 km
So, 23.09. 8:00 98% 11 km
So, 23.09. 2:00 89% 26 km
Sa, 22.09. 20:00 49% 70 km
Ortszeit Relative Feuchte Sichtweite
Mo, 24.09. 18:00 43% 70 km
Mo, 24.09. 17:50 43% -
Mo, 24.09. 17:40 45% -
Mo, 24.09. 17:30 48% 60 km
Mo, 24.09. 17:20 48% -
Mo, 24.09. 17:10 43% -
Mo, 24.09. 17:00 44% 40 km
Mo, 24.09. 16:30 44% 55 km
Mo, 24.09. 16:00 44% 45 km
Mo, 24.09. 15:30 49% 40 km
Mo, 24.09. 15:00 49% 55 km
Ortszeit Niederschlagsmenge Niederschlagsart
Mo, 24.09. 14:00 0.0 l/m2 in 6 Std. -
Mo, 24.09. 8:00 4 l/m2 in 12 Std. -
Mo, 24.09. 2:00 4 l/m2 in 6 Std. Regen
So, 23.09. 20:00 20 l/m2 in 12 Std. Regenschauer
So, 23.09. 14:00 0.1 l/m2 in 6 Std. Regen
So, 23.09. 8:00 2 l/m2 in 12 Std. Regen
So, 23.09. 2:00 0.1 l/m2 in 6 Std. Regen
Sa, 22.09. 20:00 0.1 l/m2 in 12 Std. Regen
Ortszeit Niederschlagsmenge Niederschlagsart
Mo, 24.09. 18:00 0.0 l/m2 in 1 Std. -
Mo, 24.09. 17:50 keine Meldung -
Mo, 24.09. 17:40 keine Meldung -
Mo, 24.09. 17:30 0.0 l/m2 in 1 Std. -
Mo, 24.09. 17:20 keine Meldung -
Mo, 24.09. 17:10 keine Meldung -
Mo, 24.09. 17:00 0.0 l/m2 in 1 Std. -
Mo, 24.09. 16:30 0.0 l/m2 in 1 Std. -
Mo, 24.09. 16:00 0.0 l/m2 in 1 Std. -
Mo, 24.09. 15:30 0.0 l/m2 in 1 Std. -
Mo, 24.09. 15:00 0.0 l/m2 in 1 Std. -
Ortszeit Stärke Spitze Richtung
km/h Bft. km/h Grad Sektor
Mo, 24.09. 14:00 13 3 31 310° NW
Mo, 24.09. 8:00 4 1 22 300° NW
Mo, 24.09. 2:00 18 3 50 300° NW
So, 23.09. 20:00 24 4 80 260° W
So, 23.09. 14:00 17 3 39 220° SW
So, 23.09. 8:00 4 1 18 80° O
So, 23.09. 2:00 0 0 14 - -
Sa, 22.09. 20:00 11 2 36 300° NW
Ortszeit Stärke Spitze Richtung
km/h Bft. km/h Grad Sektor
Mo, 24.09. 18:00 9 2 24 340° N
Mo, 24.09. 17:50 9 2 - 340° N
Mo, 24.09. 17:40 11 2 - 340° N
Mo, 24.09. 17:30 14 3 25 340° N
Mo, 24.09. 17:20 14 3 - 340° N
Mo, 24.09. 17:10 15 3 - 320° NW
Mo, 24.09. 17:00 17 3 31 300° NW
Mo, 24.09. 16:30 17 3 31 300° NW
Mo, 24.09. 16:00 14 3 32 310° NW
Mo, 24.09. 15:30 19 3 31 300° NW
Mo, 24.09. 15:00 14 3 32 310° NW
Ortszeit Untergrenze Bedeckung Gattung
total tief tief mittel hoch
Mo, 24.09. 14:00 1500 m 2/8 2/8 - - -
Mo, 24.09. 8:00 630 m 2/8 2/8 - - -
Mo, 24.09. 2:00 1020 m 7/8 7/8 - - -
So, 23.09. 20:00 360 m 6/8 6/8 - - -
So, 23.09. 14:00 960 m 8/8 8/8 - - -
So, 23.09. 8:00 510 m 7/8 7/8 - - -
So, 23.09. 2:00 1170 m 7/8 - - - -
Sa, 22.09. 20:00 2400 m 8/8 8/8 - - -
Ortszeit Bedeckungsgrad in Achtel und Wolkenuntergrenze
Mo, 24.09. 18:00 keine Wolken
Mo, 24.09. 17:50 keine Wolken
Mo, 24.09. 17:40 keine Wolken
Mo, 24.09. 17:30 1(1500m)
Mo, 24.09. 17:20 1(1500m)
Mo, 24.09. 17:10 2(1500m)
Mo, 24.09. 17:00 1(1800m)
Mo, 24.09. 16:30 keine Wolken
Mo, 24.09. 16:00 3(1500m)
Mo, 24.09. 15:30 4(1500m)
Mo, 24.09. 15:00 4(1500m)
Ortszeit Luftdruck NN (hPa) Tendenz (hPa in 3 Std.)
Mo, 24.09. 14:00 1034 - 0,1
Mo, 24.09. 8:00 1032 + 2,9
Mo, 24.09. 2:00 1026 + 5,4
So, 23.09. 20:00 1010 + 2,8
So, 23.09. 14:00 1011 - 2,2
So, 23.09. 8:00 1015 - 2,4
So, 23.09. 2:00 1020 - 0,6
Sa, 22.09. 20:00 1021 - 0,7
Ortszeit Luftdruck NN (hPa) Tendenz (hPa in 3 Std.)
Mo, 24.09. 18:00 1033 - 0,4
Mo, 24.09. 17:50 1033 keine Meldung
Mo, 24.09. 17:40 1033 keine Meldung
Mo, 24.09. 17:30 1033 - 0,5
Mo, 24.09. 17:20 1033 keine Meldung
Mo, 24.09. 17:10 1033 keine Meldung
Mo, 24.09. 17:00 1033 - 0,6
Mo, 24.09. 16:30 1033 - 0,8
Mo, 24.09. 16:00 1033 - 0,6
Mo, 24.09. 15:30 1033 - 0,5
Mo, 24.09. 15:00 1033 - 0,6
Ortszeit Schneehöhe (cm)
Mo, 24.09. 14:00 -
Mo, 24.09. 8:00 -
Mo, 24.09. 2:00 -
So, 23.09. 20:00 -
So, 23.09. 14:00 -
So, 23.09. 8:00 -
So, 23.09. 2:00 -
Sa, 22.09. 20:00 -
Ortszeit Schneehöhe (cm)
Mo, 24.09. 18:00 -
Mo, 24.09. 17:50 -
Mo, 24.09. 17:40 -
Mo, 24.09. 17:30 -
Mo, 24.09. 17:20 -
Mo, 24.09. 17:10 -
Mo, 24.09. 17:00 -
Mo, 24.09. 16:30 -
Mo, 24.09. 16:00 -
Mo, 24.09. 15:30 -
Mo, 24.09. 15:00 -
Link zu dieser Seite / Seite empfehlen

Das Wetter in ...